Time;durP1;ratioP1;P1;durP2;ratioP2;P2;SDS_P1;SDS_P2;PMS_P1;PMS_P2;Temp;Humidity;BMP_temperature;BMP_pressure;BME280_temperature;BME280_humidity;BME280_pressure;Samples;Min_cycle;Max_cycle;Signal;HPM_P1;HPM_P2
2022/06/19 00:03:03;;;;;;;;;;;18.70;99.90;;;;;;8375291;28;20385;-70
2022/06/19 00:07:05;;;;;;;;;;;18.60;99.90;;;;;;8381432;28;19920;-70
2022/06/19 00:11:08;;;;;;;;;;;18.60;99.90;;;;;;8371503;28;19924;-70
2022/06/19 00:15:10;;;;;;;;;;;18.60;99.90;;;;;;8397173;28;19982;-70
2022/06/19 00:19:12;;;;;;;;;;;18.50;99.80;;;;;;8383864;28;19921;-70
2022/06/19 00:23:13;;;;;;;3.92;1.15;;;18.50;99.80;;;;;;8380370;28;20383;-70
2022/06/19 00:27:15;;;;;;;3.45;0.98;;;18.50;99.80;;;;;;8380060;28;20469;-70
2022/06/19 00:31:18;;;;;;;5.35;1.10;;;18.50;99.70;;;;;;8376804;28;20139;-70
2022/06/19 00:35:20;;;;;;;4.50;1.00;;;18.50;99.60;;;;;;8381010;28;20044;-70
2022/06/19 00:39:21;;;;;;;3.80;1.10;;;18.50;99.60;;;;;;8377098;28;20066;-70
2022/06/19 00:43:24;;;;;;;4.10;1.15;;;18.50;99.60;;;;;;8381949;28;19980;-70
2022/06/19 00:47:29;;;;;;;3.45;0.90;;;18.40;99.80;;;;;;8382942;28;20424;-70
2022/06/19 00:51:31;;;;;;;5.25;1.23;;;18.40;99.60;;;;;;8379101;28;20045;-70
2022/06/19 00:55:42;;;;;;;4.57;1.20;;;18.40;99.50;;;;;;8386165;28;20040;-70
2022/06/19 00:59:50;;;;;;;5.18;1.30;;;18.30;99.50;;;;;;8377994;28;20048;-70
2022/06/19 01:04:09;;;;;;;7.95;1.45;;;18.30;99.60;;;;;;8372226;28;20051;-70
2022/06/19 01:08:12;;;;;;;5.82;1.20;;;18.20;99.60;;;;;;8383619;28;20128;-71
2022/06/19 01:12:14;;;;;;;3.95;1.20;;;18.10;99.60;;;;;;8375702;28;20049;-70
2022/06/19 01:16:16;;;;;;;4.03;1.13;;;18.10;99.50;;;;;;8383538;28;20072;-70
2022/06/19 01:20:19;;;;;;;4.75;1.13;;;18.10;99.40;;;;;;8386726;28;20052;-70
2022/06/19 01:24:58;;;;;;;4.15;1.33;;;18.10;99.20;;;;;;8381576;28;20078;-70
2022/06/19 01:29:01;;;;;;;5.22;1.10;;;18.00;99.10;;;;;;8383970;28;20045;-70
2022/06/19 01:33:07;;;;;;;4.28;0.85;;;18.00;99.00;;;;;;8378196;28;20044;-70
2022/06/19 01:37:13;;;;;;;;;;;18.00;98.90;;;;;;8383071;28;20198;-70
2022/06/19 01:41:19;;;;;;;;;;;18.00;98.80;;;;;;8377365;28;20312;-70
2022/06/19 01:45:21;;;;;;;;;;;18.00;98.70;;;;;;8369489;28;19925;-70
2022/06/19 01:49:23;;;;;;;;;;;18.00;98.50;;;;;;8345031;28;19932;-70
2022/06/19 01:53:29;;;;;;;;;;;18.00;98.40;;;;;;8352723;28;19929;-70
2022/06/19 01:57:32;;;;;;;;;;;18.00;98.20;;;;;;8348846;28;19932;-70
2022/06/19 02:01:35;;;;;;;;;;;18.00;98.10;;;;;;8344298;28;20338;-71
2022/06/19 02:05:37;;;;;;;;;;;17.90;98.00;;;;;;8350743;28;19968;-70
2022/06/19 02:09:39;;;;;;;;;;;17.90;97.90;;;;;;8355673;28;19929;-71
2022/06/19 02:13:41;;;;;;;;;;;17.90;98.00;;;;;;8348430;28;19936;-70
2022/06/19 02:17:48;;;;;;;;;;;17.90;98.00;;;;;;8342085;28;19925;-71
2022/06/19 02:21:54;;;;;;;;;;;17.90;98.10;;;;;;8335315;28;19929;-70
2022/06/19 02:25:57;;;;;;;;;;;17.80;98.10;;;;;;8347518;28;19932;-71
2022/06/19 02:29:59;;;;;;;;;;;17.80;98.20;;;;;;8374074;28;19928;-70
2022/06/19 02:34:04;;;;;;;;;;;17.80;98.20;;;;;;8334257;28;19925;-70
2022/06/19 02:38:07;;;;;;;;;;;17.80;98.20;;;;;;8358138;28;19925;-71
2022/06/19 02:42:08;;;;;;;;;;;17.70;98.20;;;;;;8339245;28;19925;-70
2022/06/19 02:46:10;;;;;;;;;;;17.70;98.20;;;;;;8369071;28;19931;-70
2022/06/19 02:50:13;;;;;;;;;;;17.60;98.20;;;;;;8387787;28;19925;-70
2022/06/19 02:54:15;;;;;;;;;;;17.60;98.20;;;;;;8388439;28;19931;-70
2022/06/19 02:58:19;;;;;;;;;;;17.50;98.10;;;;;;8373823;28;19940;-70
2022/06/19 03:02:21;;;;;;;;;;;17.40;97.90;;;;;;8395238;28;19924;-71
2022/06/19 03:06:23;;;;;;;;;;;17.40;98.00;;;;;;8379805;28;20010;-70
2022/06/19 03:10:25;;;;;;;;;;;17.40;97.90;;;;;;8381964;28;19928;-69
2022/06/19 03:14:27;;;;;;;;;;;17.40;98.00;;;;;;8386893;28;19998;-70
2022/06/19 03:18:29;;;;;;;;;;;17.40;98.10;;;;;;8385791;28;19928;-70
2022/06/19 03:22:31;;;;;;;;;;;17.40;98.30;;;;;;8385835;28;20292;-70
2022/06/19 03:26:32;;;;;;;;;;;17.30;98.50;;;;;;8387131;28;19929;-70
2022/06/19 03:30:34;;;;;;;;;;;17.30;98.60;;;;;;8382178;28;19986;-70
2022/06/19 03:34:36;;;;;;;;;;;17.30;98.70;;;;;;8398938;28;19932;-70
2022/06/19 03:38:38;;;;;;;;;;;17.30;98.90;;;;;;8378148;28;20349;-70
2022/06/19 03:42:39;;;;;;;;;;;17.20;98.90;;;;;;8388086;28;20274;-70
2022/06/19 03:46:41;;;;;;;;;;;17.20;99.00;;;;;;8387842;28;19951;-70
2022/06/19 03:50:43;;;;;;;;;;;17.10;98.90;;;;;;8387022;28;19924;-70
2022/06/19 03:54:45;;;;;;;;;;;17.10;98.90;;;;;;8368294;28;20254;-70
2022/06/19 03:58:46;;;;;;;;;;;17.00;98.70;;;;;;8389342;28;19931;-70
2022/06/19 04:02:48;;;;;;;;;;;17.00;98.60;;;;;;8398988;28;19977;-70
2022/06/19 04:06:50;;;;;;;;;;;17.00;98.50;;;;;;8382160;28;19931;-71
2022/06/19 04:10:51;;;;;;;;;;;17.00;98.40;;;;;;8385614;28;19925;-70
2022/06/19 04:14:53;;;;;;;;;;;17.00;98.40;;;;;;8384854;28;19939;-71
2022/06/19 04:18:56;;;;;;;;;;;17.00;98.30;;;;;;8394803;28;19928;-70
2022/06/19 04:22:58;;;;;;;;;;;17.10;98.20;;;;;;8384337;28;19936;-70
2022/06/19 04:27:05;;;;;;;;;;;17.10;98.20;;;;;;8372970;28;19960;-71
2022/06/19 04:31:07;;;;;;;;;;;17.00;98.20;;;;;;8369740;28;20385;-71
2022/06/19 04:35:09;;;;;;;;;;;17.00;98.30;;;;;;8378160;28;19940;-70
2022/06/19 04:39:10;;;;;;;;;;;16.90;98.20;;;;;;8386914;28;19931;-71
2022/06/19 04:43:12;;;;;;;;;;;16.80;98.20;;;;;;8382124;28;19928;-70
2022/06/19 04:47:14;;;;;;;;;;;16.70;98.10;;;;;;8382934;28;20011;-70
2022/06/19 04:51:16;;;;;;;;;;;16.60;98.00;;;;;;8383457;28;20338;-70
2022/06/19 04:55:18;;;;;;;;;;;16.60;98.00;;;;;;8379840;28;19929;-70
2022/06/19 04:59:19;;;;;;;;;;;16.60;98.00;;;;;;8382437;28;19936;-70
2022/06/19 05:03:22;;;;;;;;;;;16.60;97.90;;;;;;8390771;28;19929;-71
2022/06/19 05:07:24;;;;;;;;;;;16.60;97.80;;;;;;8381810;28;19992;-71
2022/06/19 05:11:26;;;;;;;;;;;16.50;97.90;;;;;;8377360;28;20823;-71
2022/06/19 05:15:28;;;;;;;;;;;16.40;98.00;;;;;;8382776;28;20372;-71
2022/06/19 05:19:29;;;;;;;;;;;16.40;98.20;;;;;;8350160;28;20489;-71
2022/06/19 05:23:32;;;;;;;;;;;16.50;98.30;;;;;;8349822;28;19924;-71
2022/06/19 05:27:33;;;;;;;;;;;16.60;98.40;;;;;;8348359;28;20380;-70
2022/06/19 05:31:35;;;;;;;;;;;16.60;98.80;;;;;;8354584;28;19929;-71
2022/06/19 05:35:37;;;;;;;;;;;16.70;98.60;;;;;;8352969;28;19973;-71
2022/06/19 05:39:38;;;;;;;;;;;16.80;98.70;;;;;;8358303;28;19928;-71
2022/06/19 05:43:40;;;;;;;;;;;16.90;98.70;;;;;;8393235;28;19935;-71
2022/06/19 05:47:42;;;;;;;;;;;16.90;98.80;;;;;;8358255;28;19928;-71
2022/06/19 05:51:44;;;;;;;;;;;16.90;98.90;;;;;;8359679;28;19931;-71
2022/06/19 05:55:45;;;;;;;;;;;16.90;99.00;;;;;;8356193;28;19940;-71
2022/06/19 05:59:47;;;;;;;;;;;16.80;99.10;;;;;;8389559;28;19925;-71
2022/06/19 06:03:49;;;;;;;;;;;16.80;99.20;;;;;;8353190;28;19932;-71
2022/06/19 06:07:50;;;;;;;;;;;16.80;99.30;;;;;;8362931;28;19971;-71
2022/06/19 06:11:52;;;;;;;;;;;16.80;99.50;;;;;;8354986;28;19935;-71
2022/06/19 06:15:54;;;;;;;;;;;16.80;99.50;;;;;;8357946;28;19928;-71
2022/06/19 06:19:55;;;;;;;;;;;16.80;99.60;;;;;;8354478;28;19924;-71
2022/06/19 06:23:57;;;;;;;;;;;16.80;99.80;;;;;;8355855;28;19933;-71
2022/06/19 06:27:59;;;;;;;;;;;16.70;99.90;;;;;;8367628;28;19929;-71
2022/06/19 06:32:00;;;;;;;;;;;16.70;99.90;;;;;;8370757;28;20625;-71
2022/06/19 06:36:02;;;;;;;;;;;16.60;99.90;;;;;;8364120;28;20276;-70
2022/06/19 06:40:05;;;;;;;;;;;16.60;99.90;;;;;;8366512;28;19933;-71
2022/06/19 06:44:11;;;;;;;;;;;16.60;99.90;;;;;;8379853;28;19924;-71
2022/06/19 06:48:14;;;;;;;;;;;16.50;99.90;;;;;;8369213;28;19946;-71
2022/06/19 06:52:16;;;;;;;;;;;16.40;99.90;;;;;;8362482;28;19935;-71
2022/06/19 06:56:22;;;;;;;;;;;16.30;99.90;;;;;;8399343;28;20241;-71
2022/06/19 07:00:24;;;;;;;;;;;16.30;99.90;;;;;;8356292;28;20331;-71
2022/06/19 07:04:26;;;;;;;;;;;16.20;99.90;;;;;;8362357;28;19939;-71
2022/06/19 07:08:28;;;;;;;;;;;16.30;99.90;;;;;;8354825;28;20437;-72
2022/06/19 07:12:29;;;;;;;;;;;16.20;99.90;;;;;;8355143;28;20388;-71
2022/06/19 07:16:31;;;;;;;;;;;16.20;99.90;;;;;;8352857;28;19933;-71
2022/06/19 07:20:33;;;;;;;;;;;16.20;99.90;;;;;;8365999;28;19928;-71
2022/06/19 07:24:35;;;;;;;;;;;16.30;99.90;;;;;;8381264;28;20352;-71
2022/06/19 07:28:37;;;;;;;;;;;16.30;99.90;;;;;;8358590;28;19928;-71
2022/06/19 07:32:39;;;;;;;;;;;16.30;99.90;;;;;;8350497;28;20281;-71
2022/06/19 07:36:41;;;;;;;;;;;16.30;99.90;;;;;;8386424;28;20340;-71
2022/06/19 07:40:42;;;;;;;;;;;16.30;99.90;;;;;;8363700;28;20372;-70
2022/06/19 07:44:49;;;;;;;;;;;16.20;99.90;;;;;;8358269;28;19925;-70
2022/06/19 07:53:11;;;;;;;;;;;16.10;99.90;;;;;;8329845;28;19940;-70
2022/06/19 07:57:12;;;;;;;;;;;16.10;99.90;;;;;;8316253;28;19929;-70
2022/06/19 08:01:15;;;;;;;;;;;16.20;99.90;;;;;;8304197;28;19925;-70
2022/06/19 08:05:17;;;;;;;;;;;16.20;99.90;;;;;;8304952;28;19929;-70
2022/06/19 08:09:19;;;;;;;;;;;16.30;99.90;;;;;;8309144;28;19929;-70
2022/06/19 08:13:21;;;;;;;;;;;16.30;99.90;;;;;;8322625;28;19925;-70
2022/06/19 08:17:23;;;;;;;;;;;16.30;99.90;;;;;;8325323;28;19933;-70
2022/06/19 08:21:25;;;;;;;;;;;16.30;99.90;;;;;;8322443;28;20387;-70
2022/06/19 08:25:27;;;;;;;;;;;16.30;99.90;;;;;;8319766;28;19933;-70
2022/06/19 08:29:28;;;;;;;;;;;16.30;99.90;;;;;;8320944;28;19936;-70
2022/06/19 08:33:30;;;;;;;;;;;16.30;99.90;;;;;;8319820;28;19925;-69
2022/06/19 08:37:33;;;;;;;;;;;16.20;99.90;;;;;;8322427;28;20397;-70
2022/06/19 08:41:59;;;;;;;;;;;16.20;99.90;;;;;;8319400;28;19928;-70
2022/06/19 08:46:08;;;;;;;;;;;16.30;99.90;;;;;;8331093;28;19925;-70
2022/06/19 08:50:19;;;;;;;;;;;16.30;99.90;;;;;;8350072;28;20027;-70
2022/06/19 08:54:26;;;;;;;;;;;16.30;99.90;;;;;;8358248;28;19932;-70
2022/06/19 08:58:28;;;;;;;;;;;16.30;99.90;;;;;;8389364;28;19936;-70
2022/06/19 09:02:48;;;;;;;;;;;16.20;99.90;;;;;;8386946;28;20015;-70
2022/06/19 09:06:59;;;;;;;;;;;16.30;99.90;;;;;;8352694;28;19939;-70
2022/06/19 09:11:19;;;;;;;;;;;16.40;99.90;;;;;;8352486;28;19940;-70
2022/06/19 09:15:28;;;;;;;;;;;16.40;99.90;;;;;;8360195;28;19966;-70
2022/06/19 09:19:39;;;;;;;;;;;16.50;99.90;;;;;;8357354;28;20347;-70
2022/06/19 09:24:01;;;;;;;;;;;16.70;99.90;;;;;;8375727;28;19929;-70
2022/06/19 09:28:19;;;;;;;;;;;16.80;99.90;;;;;;8360049;28;19929;-70
2022/06/19 09:32:41;;;;;;;;;;;16.90;99.90;;;;;;8377027;28;19961;-70
2022/06/19 09:37:07;;;;;;;;;;;17.10;99.90;;;;;;8361260;28;19971;-70
2022/06/19 09:41:13;;;;;;;;;;;17.30;99.90;;;;;;8373701;28;19928;-70
2022/06/19 09:45:26;;;;;;;;;;;17.40;99.90;;;;;;8360098;28;19929;-70
2022/06/19 09:49:38;;;;;;;;;;;17.40;99.90;;;;;;8360429;28;19925;-70
2022/06/19 09:53:58;;;;;;;;;;;17.40;99.90;;;;;;8394458;28;20396;-70
2022/06/19 09:58:23;;;;;;;;;;;17.40;99.90;;;;;;8401133;27;19965;-70
2022/06/19 10:02:25;;;;;;;;;;;17.40;99.90;;;;;;8357769;28;20280;-69
2022/06/19 10:06:36;;;;;;;;;;;17.50;99.90;;;;;;8361226;28;20055;-69
2022/06/19 10:10:43;;;;;;;;;;;17.50;99.90;;;;;;8355682;28;20000;-69
2022/06/19 10:14:48;;;;;;;;;;;17.50;99.90;;;;;;8359569;28;20388;-70
2022/06/19 10:18:53;;;;;;;;;;;17.50;99.90;;;;;;8360977;28;19948;-70
2022/06/19 10:23:07;;;;;;;;;;;17.50;99.90;;;;;;8362492;28;19929;-70
2022/06/19 10:27:18;;;;;;;;;;;17.50;99.90;;;;;;8355195;28;20393;-70
2022/06/19 10:31:25;;;;;;;;;;;17.40;99.90;;;;;;8361569;28;19971;-70
2022/06/19 10:35:40;;;;;;;;;;;17.40;99.90;;;;;;8363767;28;19936;-70
2022/06/19 10:40:07;;;;;;;;;;;17.30;99.90;;;;;;8346031;28;20357;-70
2022/06/19 10:44:28;;;;;;;;;;;17.20;99.90;;;;;;8362490;28;19925;-70
2022/06/19 10:48:36;;;;;;;;;;;17.10;99.90;;;;;;8345136;28;19931;-70
2022/06/19 10:52:42;;;;;;;;;;;17.10;99.90;;;;;;8357711;28;19940;-70
2022/06/19 10:57:03;;;;;;;;;;;17.10;99.90;;;;;;8357076;28;19933;-70
2022/06/19 11:01:06;;;;;;;;;;;17.10;99.90;;;;;;8360225;28;20206;-70
2022/06/19 11:05:28;;;;;;;;;;;17.20;99.90;;;;;;8356004;28;19925;-70
2022/06/19 11:09:42;;;;;;;;;;;17.20;99.90;;;;;;8355077;28;19936;-70
2022/06/19 11:13:59;;;;;;;;;;;17.30;99.90;;;;;;8355554;28;19924;-70
2022/06/19 11:18:16;;;;;;;;;;;17.40;99.90;;;;;;8375954;28;20535;-69
2022/06/19 11:22:19;;;;;;;;;;;17.50;99.90;;;;;;8356831;28;19928;-70
2022/06/19 11:26:22;;;;;;;;;;;17.60;99.90;;;;;;8353415;28;19932;-70
2022/06/19 11:30:29;;;;;;;;;;;17.70;99.90;;;;;;8350511;28;19932;-69
2022/06/19 11:34:43;;;;;;;;;;;17.80;99.90;;;;;;8363204;28;20590;-70
2022/06/19 11:38:46;;;;;;;;;;;17.90;99.90;;;;;;8355376;28;19925;-70
2022/06/19 11:42:51;;;;;;;;;;;17.90;99.90;;;;;;8361480;28;19924;-70
2022/06/19 11:46:54;;;;;;;;;;;18.10;99.90;;;;;;8364056;28;20663;-70
2022/06/19 11:50:56;;;;;;;;;;;18.20;99.90;;;;;;8377119;28;19932;-70
2022/06/19 11:55:00;;;;;;;;;;;18.40;99.90;;;;;;8358204;28;20364;-70
2022/06/19 11:59:04;;;;;;;;;;;18.50;99.90;;;;;;8355218;28;19929;-70
2022/06/19 12:03:15;;;;;;;;;;;18.50;99.90;;;;;;8360857;28;19932;-70
2022/06/19 12:07:18;;;;;;;;;;;18.50;99.90;;;;;;8353911;28;19938;-70
2022/06/19 12:11:34;;;;;;;;;;;18.50;99.90;;;;;;8353474;28;19924;-70
2022/06/19 12:15:36;;;;;;;;;;;18.40;99.90;;;;;;8355767;28;20344;-70
2022/06/19 12:19:38;;;;;;;;;;;18.40;99.90;;;;;;8355491;28;20384;-70
2022/06/19 12:23:41;;;;;;;;;;;18.30;99.90;;;;;;8356922;28;20276;-70
2022/06/19 12:27:48;;;;;;;;;;;18.30;99.90;;;;;;8354501;28;20370;-70
2022/06/19 12:31:51;;;;;;;;;;;18.20;99.90;;;;;;8360759;28;19925;-70
2022/06/19 12:35:54;;;;;;;;;;;18.10;99.90;;;;;;8353159;28;19933;-70
2022/06/19 12:39:56;;;;;;;;;;;18.00;99.90;;;;;;8364711;28;20242;-70
2022/06/19 12:44:16;;;;;;;;;;;18.00;99.90;;;;;;8369084;28;19936;-70
2022/06/19 12:48:18;;;;;;;;;;;18.10;99.90;;;;;;8350810;28;19998;-70
2022/06/19 12:52:35;;;;;;;;;;;18.10;99.90;;;;;;8386991;28;19929;-70
2022/06/19 12:56:49;;;;;;;;;;;18.00;99.90;;;;;;8367157;28;19951;-70
2022/06/19 13:01:02;;;;;;;;;;;18.00;99.90;;;;;;8355419;28;19932;-70
2022/06/19 13:05:03;;;;;;;;;;;18.00;99.90;;;;;;8355472;28;19925;-70
2022/06/19 13:09:14;;;;;;;;;;;18.00;99.90;;;;;;8371116;28;19925;-70
2022/06/19 13:13:37;;;;;;;;;;;18.10;99.90;;;;;;8361153;28;20629;-70
2022/06/19 13:17:45;;;;;;;;;;;18.10;99.90;;;;;;8355601;28;20380;-70
2022/06/19 13:21:52;;;;;;;;;;;18.20;99.90;;;;;;8353200;28;19932;-70
2022/06/19 13:25:57;;;;;;;;;;;18.30;99.90;;;;;;8353653;28;19932;-70
2022/06/19 13:30:20;;;;;;;;;;;18.40;99.90;;;;;;8356334;28;19925;-70
2022/06/19 13:34:28;;;;;;;;;;;18.50;99.90;;;;;;8355274;28;20312;-69
2022/06/19 13:38:37;;;;;;;;;;;18.50;99.90;;;;;;8388096;28;19928;-70
2022/06/19 13:42:39;;;;;;;;;;;18.50;99.90;;;;;;8355637;28;19925;-70
2022/06/19 13:46:41;;;;;;;;;;;18.50;99.90;;;;;;8355114;28;19936;-70
2022/06/19 13:50:51;;;;;;;;;;;18.50;99.90;;;;;;8354160;28;20175;-70
2022/06/19 13:55:10;;;;;;;2.40;0.70;;;18.50;99.90;;;;;;8384958;28;19928;-70
2022/06/19 13:59:30;;;;;;;4.53;0.65;;;18.50;99.90;;;;;;8355611;28;20056;-70
2022/06/19 14:08:52;;;;;;;1.90;0.70;;;18.30;99.90;;;;;;8357839;28;20124;-70
2022/06/19 14:12:58;;;;;;;1.70;0.82;;;18.30;99.90;;;;;;8362467;28;20052;-70
2022/06/19 14:17:10;;;;;;;1.40;0.65;;;18.30;99.90;;;;;;8375232;28;20048;-70
2022/06/19 14:21:27;;;;;;;1.08;0.55;;;18.20;99.90;;;;;;8359277;28;20041;-70
2022/06/19 14:25:43;;;;;;;2.65;0.70;;;18.20;99.90;;;;;;8376938;28;20068;-70
2022/06/19 14:29:57;;;;;;;2.73;0.70;;;18.20;99.90;;;;;;8372628;28;20102;-70
2022/06/19 14:34:00;;;;;;;1.77;0.77;;;18.10;99.90;;;;;;8391915;28;20501;-69
2022/06/19 14:38:05;;;;;;;2.38;0.75;;;18.10;99.90;;;;;;8368837;28;20500;-70
2022/06/19 14:42:07;;;;;;;2.17;0.80;;;18.00;99.90;;;;;;8363706;28;20049;-70
2022/06/19 14:46:31;;;;;;;1.10;0.50;;;18.00;99.90;;;;;;8371061;28;20049;-70
2022/06/19 14:50:48;;;;;;;2.17;0.77;;;17.90;99.90;;;;;;8385914;28;20595;-70
2022/06/19 14:55:29;;;;;;;3.72;0.80;;;17.90;99.90;;;;;;8374186;28;20049;-70
2022/06/19 14:59:45;;;;;;;1.77;0.50;;;17.90;99.90;;;;;;8364160;28;20075;-70
2022/06/19 15:03:59;;;;;;;2.40;0.70;;;17.90;99.90;;;;;;8352752;28;20342;-70
2022/06/19 15:08:13;;;;;;;1.23;0.57;;;17.90;99.90;;;;;;8356446;28;20504;-70
2022/06/19 15:12:15;;;;;;;1.40;0.50;;;17.80;99.90;;;;;;8356493;28;20053;-70
2022/06/19 15:16:16;;;;;;;;;;;17.80;99.90;;;;;;8356832;28;20049;-70
2022/06/19 15:20:24;;;;;;;;;;;17.80;99.90;;;;;;8389236;28;19928;-69
2022/06/19 15:24:49;;;;;;;;;;;17.80;99.90;;;;;;8372090;28;19924;-70
2022/06/19 15:28:51;;;;;;;;;;;17.70;99.90;;;;;;8354280;28;20356;-69
2022/06/19 15:32:59;;;;;;;;;;;17.60;99.90;;;;;;8357073;28;19978;-69
2022/06/19 15:37:00;;;;;;;;;;;17.50;99.90;;;;;;8389065;28;19936;-70
2022/06/19 15:41:25;;;;;;;;;;;17.40;99.90;;;;;;8388336;28;19935;-70
2022/06/19 15:45:47;;;;;;;;;;;17.50;99.90;;;;;;8355344;28;19943;-70
2022/06/19 15:49:54;;;;;;;;;;;17.50;99.90;;;;;;8370286;28;19925;-69
2022/06/19 15:54:20;;;;;;;;;;;17.50;99.90;;;;;;8354588;28;19928;-69
2022/06/19 15:58:21;;;;;;;;;;;17.60;99.90;;;;;;8356184;28;20023;-70
2022/06/19 16:02:28;;;;;;;;;;;17.70;99.90;;;;;;8354329;28;20327;-70
2022/06/19 16:06:44;;;;;;;;;;;17.80;99.90;;;;;;8350581;28;19928;-70
2022/06/19 16:10:47;;;;;;;;;;;17.80;99.90;;;;;;8353340;28;19943;-69
2022/06/19 16:15:07;;;;;;;;;;;17.90;99.90;;;;;;8371172;28;19924;-70
2022/06/19 16:19:22;;;;;;;;;;;17.90;99.90;;;;;;8384377;28;19947;-70
2022/06/19 16:23:25;;;;;;;;;;;17.90;99.90;;;;;;8355227;28;19920;-69
2022/06/19 16:27:30;;;;;;;;;;;17.90;99.90;;;;;;8350819;28;19931;-70
2022/06/19 16:31:33;;;;;;;;;;;17.90;99.90;;;;;;8353194;28;20372;-70
2022/06/19 16:44:33;;;;;;;;;;;18.20;99.90;;;;;;8353558;28;19928;-70
2022/06/19 16:48:36;;;;;;;;;;;18.30;99.90;;;;;;8351660;28;19931;-70
2022/06/19 16:52:39;;;;;;;;;;;18.30;99.90;;;;;;8352023;28;19927;-70
2022/06/19 16:56:41;;;;;;;;;;;18.30;99.90;;;;;;8353515;28;20024;-70
2022/06/19 17:00:51;;;;;;;;;;;18.30;99.90;;;;;;8350990;28;20284;-70
2022/06/19 17:04:54;;;;;;;;;;;18.20;99.90;;;;;;8352391;28;20482;-70
2022/06/19 17:09:17;;;;;;;;;;;18.30;99.90;;;;;;8352638;28;19936;-70
2022/06/19 17:13:21;;;;;;;;;;;18.30;99.90;;;;;;8352388;28;19927;-70
2022/06/19 17:17:26;;;;;;;;;;;18.20;99.90;;;;;;8352657;28;19920;-70
2022/06/19 17:21:42;;;;;;;;;;;18.10;99.90;;;;;;8351476;28;19939;-70
2022/06/19 17:25:45;;;;;;;;;;;18.10;99.90;;;;;;8354222;28;19925;-70
2022/06/19 17:29:54;;;;;;;;;;;18.10;99.90;;;;;;8347272;28;20260;-70
2022/06/19 17:33:56;;;;;;;;;;;18.10;99.90;;;;;;8350661;28;19925;-69
2022/06/19 17:37:58;;;;;;;;;;;18.20;99.90;;;;;;8357239;28;19924;-70
2022/06/19 17:42:19;;;;;;;;;;;18.20;99.90;;;;;;8355952;28;20216;-70
2022/06/19 17:46:22;;;;;;;;;;;18.30;99.90;;;;;;8359680;28;19920;-70
2022/06/19 17:50:42;;;;;;;;;;;18.30;99.90;;;;;;8356614;28;20075;-69
2022/06/19 17:54:44;;;;;;;;;;;18.20;99.90;;;;;;8360862;28;19920;-70
2022/06/19 17:58:57;;;;;;;;;;;18.20;99.90;;;;;;8358442;28;19924;-69
2022/06/19 18:03:02;;;;;;;;;;;18.10;99.90;;;;;;8358165;28;19921;-69
2022/06/19 18:07:14;;;;;;;;;;;18.10;99.90;;;;;;8362070;28;19932;-70
2022/06/19 18:11:22;;;;;;;;;;;18.00;99.90;;;;;;8362194;28;20363;-69
2022/06/19 18:19:44;;;;;;;;;;;17.90;99.90;;;;;;8359525;28;20011;-69
2022/06/19 18:23:47;;;;;;;;;;;17.90;99.90;;;;;;8384768;28;19935;-69
2022/06/19 18:27:49;;;;;;;;;;;17.90;99.90;;;;;;8352230;28;19931;-69
2022/06/19 18:31:55;;;;;;;;;;;17.90;99.90;;;;;;8359584;28;19921;-69
2022/06/19 18:35:57;;;;;;;;;;;17.80;99.90;;;;;;8360870;28;19921;-69
2022/06/19 18:39:58;;;;;;;;;;;17.80;99.90;;;;;;8356558;28;20310;-69
2022/06/19 18:44:00;;;;;;;;;;;17.80;99.90;;;;;;8357739;28;19921;-69
2022/06/19 18:48:05;;;;;;;;;;;17.70;99.90;;;;;;8356504;28;19964;-69
2022/06/19 18:52:11;;;;;;;;;;;17.70;99.90;;;;;;8371697;28;19920;-69
2022/06/19 18:56:13;;;;;;;;;;;17.70;99.90;;;;;;8355792;28;20004;-69
2022/06/19 19:00:25;;;;;;;;;;;17.70;99.90;;;;;;8353812;28;19931;-69
2022/06/19 19:04:27;;;;;;;;;;;17.70;99.90;;;;;;8361266;28;19931;-69
2022/06/19 19:08:36;;;;;;;;;;;17.60;99.90;;;;;;8357249;28;20170;-69
2022/06/19 19:12:37;;;;;;;;;;;17.60;99.90;;;;;;8386562;28;20289;-69
2022/06/19 19:16:41;;;;;;;;;;;17.60;99.90;;;;;;8365251;28;20399;-69
2022/06/19 19:20:45;;;;;;;;;;;17.50;99.90;;;;;;8349574;28;21018;-69
2022/06/19 19:24:47;;;;;;;;;;;17.50;99.90;;;;;;8366532;28;19925;-69
2022/06/19 19:28:51;;;;;;;;;;;17.40;99.90;;;;;;8388756;28;19921;-69
2022/06/19 19:32:53;;;;;;;;;;;17.40;99.90;;;;;;8358492;28;19925;-69
2022/06/19 19:36:55;;;;;;;;;;;17.30;99.90;;;;;;8359955;28;20288;-69
2022/06/19 19:40:57;;;;;;;;;;;17.30;99.90;;;;;;8352509;28;19948;-69
2022/06/19 19:44:58;;;;;;;;;;;17.20;99.90;;;;;;8359435;28;20411;-69
2022/06/19 19:49:00;;;;;;;;;;;17.20;99.90;;;;;;8354901;28;20344;-69
2022/06/19 19:53:02;;;;;;;;;;;17.20;99.90;;;;;;8350281;28;19925;-69
2022/06/19 19:57:04;;;;;;;;;;;17.10;99.90;;;;;;8354026;28;19931;-69
2022/06/19 20:01:06;;;;;;;;;;;17.10;99.90;;;;;;8353696;28;19921;-69
2022/06/19 20:05:07;;;;;;;;;;;17.10;99.90;;;;;;8357986;28;19927;-69
2022/06/19 20:13:39;;;;;;;3.15;1.02;;;17.00;99.90;;;;;;8353478;28;20307;-69
2022/06/19 20:17:40;;;;;;;4.50;1.00;;;16.90;99.90;;;;;;8349452;28;20051;-69
2022/06/19 20:21:53;;;;;;;3.35;0.90;;;16.90;99.90;;;;;;8353400;28;20041;-69
2022/06/19 20:25:54;;;;;;;4.40;1.00;;;16.90;99.90;;;;;;8351373;28;20089;-69
2022/06/19 20:30:13;;;;;;;5.38;1.05;;;16.80;99.90;;;;;;8355656;28;20057;-69
2022/06/19 20:34:16;;;;;;;4.15;1.10;;;16.80;99.90;;;;;;8347218;28;20103;-69
2022/06/19 20:38:27;;;;;;;3.08;1.25;;;16.80;99.90;;;;;;8352641;28;20045;-69
2022/06/19 20:42:29;;;;;;;2.45;0.90;;;16.80;99.90;;;;;;8351959;28;20405;-69
2022/06/19 20:46:31;;;;;;;5.00;1.60;;;16.80;99.90;;;;;;8353323;28;20520;-69
2022/06/19 20:50:43;;;;;;;3.60;1.00;;;16.70;99.90;;;;;;8354449;28;19929;-69
2022/06/19 20:54:56;;;;;;;7.97;1.70;;;16.70;99.90;;;;;;8369002;28;20063;-69
2022/06/19 20:58:58;;;;;;;3.90;1.00;;;16.70;99.90;;;;;;8348365;28;20060;-69
2022/06/19 21:02:59;;;;;;;3.55;1.10;;;16.70;99.90;;;;;;8353767;28;20052;-69
2022/06/19 21:07:02;;;;;;;3.80;1.27;;;16.70;99.90;;;;;;8384984;28;20064;-69
2022/06/19 21:11:09;;;;;;;;;;;16.60;99.90;;;;;;8379763;28;20052;-69
2022/06/19 21:15:15;;;;;;;;;;;16.60;99.90;;;;;;8386385;28;19932;-69
2022/06/19 21:19:17;;;;;;;;;;;16.60;99.90;;;;;;8385188;28;19925;-69
2022/06/19 21:23:24;;;;;;;;;;;16.60;99.90;;;;;;8380518;28;19951;-69
2022/06/19 21:27:26;;;;;;;;;;;16.60;99.90;;;;;;8383339;28;20350;-69
2022/06/19 21:31:28;;;;;;;;;;;16.50;99.90;;;;;;8381458;28;19939;-69
2022/06/19 21:35:29;;;;;;;;;;;16.50;99.90;;;;;;8417783;27;19933;-69
2022/06/19 21:39:31;;;;;;;;;;;16.50;99.90;;;;;;8390322;28;19947;-69
2022/06/19 21:43:32;;;;;;;;;;;16.50;99.90;;;;;;8382862;28;21953;-69
2022/06/19 21:47:35;;;;;;;;;;;16.50;99.90;;;;;;8389488;28;19928;-69
2022/06/19 21:51:39;;;;;;;;;;;16.50;99.90;;;;;;8391379;28;19925;-69
2022/06/19 21:55:44;;;;;;;;;;;16.50;99.90;;;;;;8389853;28;20061;-69
2022/06/19 21:59:45;;;;;;;;;;;16.50;99.90;;;;;;8371436;28;19932;-69
2022/06/19 22:03:50;;;;;;;;;;;16.50;99.90;;;;;;8373066;28;21422;-69
2022/06/19 22:07:54;;;;;;;;;;;16.40;99.90;;;;;;8379123;28;19928;-69
2022/06/19 22:16:18;;;;;;;;;;;16.30;99.90;;;;;;8389960;28;19932;-69
2022/06/19 22:20:19;;;;;;;;;;;16.30;99.90;;;;;;8376758;28;19924;-69
2022/06/19 22:24:23;;;;;;;;;;;16.30;99.90;;;;;;8381288;28;19927;-69
2022/06/19 22:28:24;;;;;;;;;;;16.20;99.90;;;;;;8385355;28;19928;-69
2022/06/19 22:32:26;;;;;;;;;;;16.20;99.90;;;;;;8379225;28;20414;-69
2022/06/19 22:36:29;;;;;;;;;;;16.20;99.90;;;;;;8381627;28;19947;-69
2022/06/19 22:40:31;;;;;;;;;;;16.10;99.90;;;;;;8378854;28;19924;-69
2022/06/19 22:44:34;;;;;;;;;;;16.10;99.90;;;;;;8382429;28;19924;-69
2022/06/19 22:48:35;;;;;;;;;;;16.00;99.90;;;;;;8384463;28;20014;-69
2022/06/19 22:52:38;;;;;;;;;;;16.00;99.90;;;;;;8383314;28;20030;-69
2022/06/19 22:56:40;;;;;;;;;;;16.00;99.90;;;;;;8380449;28;19924;-69
2022/06/19 23:05:09;;;;;;;;;;;15.90;99.90;;;;;;8368177;28;19964;-69
2022/06/19 23:09:12;;;;;;;;;;;15.90;99.90;;;;;;8363616;28;19929;-69
2022/06/19 23:13:13;;;;;;;;;;;15.90;99.90;;;;;;8367658;28;19925;-69
2022/06/19 23:17:27;;;;;;;;;;;15.90;99.90;;;;;;8370259;28;19936;-69
2022/06/19 23:21:29;;;;;;;;;;;15.90;99.90;;;;;;8377281;28;19924;-69
2022/06/19 23:25:32;;;;;;;;;;;15.90;99.90;;;;;;8375413;28;19931;-69
2022/06/19 23:29:33;;;;;;;;;;;15.80;99.90;;;;;;8382740;28;20035;-69
2022/06/19 23:33:35;;;;;;;;;;;15.80;99.90;;;;;;8373452;28;19920;-69
2022/06/19 23:37:37;;;;;;;;;;;15.80;99.90;;;;;;8412415;27;19927;-69
2022/06/19 23:41:39;;;;;;;;;;;15.80;99.90;;;;;;8369895;28;19931;-69
2022/06/19 23:45:41;;;;;;;;;;;15.80;99.90;;;;;;8379291;28;20388;-69
2022/06/19 23:49:42;;;;;;;;;;;15.70;99.90;;;;;;8384208;28;20544;-69
2022/06/19 23:53:44;;;;;;;;;;;15.70;99.90;;;;;;8382067;28;19928;-70
2022/06/19 23:57:47;;;;;;;;;;;15.70;99.90;;;;;;8380067;28;20232;-69
